Pocomoke City, Maryland
Current Conditions -  °F | °C
As of 6:54 PM on Friday 19 Dec 2014 (Local Time) from KWAL Reporting Station
Clear Clear  
Wind Chill: 34°   Ceiling: Unl
Heat Index: 34°   Visibility: 10mi
Dew Point: 25°   Wind: 3mph
Humidity: 70%   Direction: 290°WNW
Pressure: 30.2"   Gusts: NA
Location:  38.08°N, 75.57°W
Report Text: KWAL 192354Z AUTO 29003KT 10SM CLR 01/M04 A3020 RMK AO2 SLP222 T00111039 10033 20011 53015
Loading
Personal Weather Stations






























Interactive Weather Map New forecast layout! Learn more

10-Day Weather Forecast

Advertisements
Track Severe Weather on mobile